createdAt,value
2022-11-08T00:01:53.766Z,2.70
2022-11-08T00:04:22.698Z,2.77
2022-11-08T00:07:08.743Z,2.30
2022-11-08T00:09:55.109Z,3.30
2022-11-08T00:12:40.915Z,2.50
2022-11-08T01:15:40.738Z,3.77
2022-11-08T01:18:10.550Z,2.43
2022-11-08T01:20:40.911Z,2.87
2022-11-08T01:23:09.709Z,3.10
2022-11-08T01:25:39.569Z,2.13
2022-11-08T01:28:09.254Z,2.13
2022-11-08T01:30:40.672Z,2.30
2022-11-08T01:33:09.969Z,2.77
2022-11-08T01:35:39.111Z,4.97
2022-11-08T01:38:09.765Z,2.60
2022-11-08T01:40:44.609Z,2.03
2022-11-08T01:43:37.358Z,2.57
2022-11-08T01:46:39.265Z,2.40
2022-11-08T01:49:43.704Z,1.80
2022-11-08T01:52:25.444Z,2.03
2022-11-08T01:55:01.321Z,3.80
2022-11-08T01:57:36.908Z,2.73
2022-11-08T02:00:08.709Z,1.90
2022-11-08T02:02:41.990Z,3.00
2022-11-08T02:05:25.219Z,3.47
2022-11-08T02:07:58.372Z,3.13
2022-11-08T02:10:31.021Z,2.90
2022-11-08T02:13:03.713Z,2.97
2022-11-08T02:15:33.951Z,3.90
2022-11-08T02:18:04.650Z,2.23
2022-11-08T02:20:34.484Z,3.63
2022-11-08T02:23:13.641Z,2.60
2022-11-08T02:25:53.703Z,2.70
2022-11-08T02:28:27.982Z,3.87
2022-11-08T02:31:01.766Z,5.63
2022-11-08T02:33:34.717Z,1.93
2022-11-08T02:36:07.780Z,2.50
2022-11-08T02:38:41.924Z,2.37
2022-11-08T02:41:28.480Z,3.77
2022-11-08T02:43:58.190Z,1.97
2022-11-08T02:46:29.130Z,1.90
2022-11-08T02:49:06.726Z,2.60
2022-11-08T02:51:38.152Z,2.80
2022-11-08T02:54:07.831Z,3.30
2022-11-08T02:56:42.253Z,5.63
2022-11-08T02:59:11.768Z,3.53
2022-11-08T03:01:44.204Z,3.77
2022-11-08T03:04:14.489Z,2.30
2022-11-08T03:06:45.163Z,1.80
2022-11-08T03:09:14.415Z,2.43
2022-11-08T03:11:46.431Z,2.03
2022-11-08T03:14:16.052Z,3.50
2022-11-08T03:16:49.647Z,3.30
2022-11-08T03:19:18.733Z,1.87
2022-11-08T03:21:50.851Z,1.70
2022-11-08T03:24:31.797Z,2.37
2022-11-08T03:27:06.775Z,4.13
2022-11-08T03:29:35.347Z,3.33
2022-11-08T03:32:04.761Z,1.70
2022-11-08T03:34:39.050Z,2.07
2022-11-08T03:37:18.333Z,2.10
2022-11-08T03:39:47.689Z,3.07
2022-11-08T03:42:17.670Z,1.57
2022-11-08T03:47:39.718Z,3.33
2022-11-08T03:50:10.967Z,2.10
2022-11-08T03:52:43.006Z,1.63
2022-11-08T03:55:13.769Z,2.90
2022-11-08T03:57:45.199Z,2.37
2022-11-08T04:00:14.933Z,2.33
2022-11-08T04:02:43.689Z,3.03
2022-11-08T04:05:15.060Z,1.83
2022-11-08T04:07:47.339Z,1.70
2022-11-08T04:10:18.874Z,3.57
2022-11-08T04:13:06.462Z,2.47
2022-11-08T04:15:38.521Z,2.43
2022-11-08T04:18:24.781Z,2.07
2022-11-08T04:21:11.107Z,1.53
2022-11-08T04:23:40.783Z,3.03
2022-11-08T04:26:11.861Z,2.43
2022-11-08T04:28:44.225Z,2.40
2022-11-08T04:31:15.322Z,3.70
2022-11-08T04:33:44.557Z,3.53
2022-11-08T04:36:14.558Z,2.50
2022-11-08T04:38:43.546Z,2.50
2022-11-08T04:41:15.491Z,1.80
2022-11-08T04:43:45.827Z,1.90
2022-11-08T04:46:19.544Z,3.07
2022-11-08T04:48:48.493Z,3.17
2022-11-08T04:51:20.862Z,3.57
2022-11-08T04:53:51.716Z,2.03
2022-11-08T04:56:22.918Z,2.33
2022-11-08T04:58:59.543Z,2.13
2022-11-08T05:01:29.836Z,3.43
2022-11-08T05:03:58.474Z,4.87
2022-11-08T05:06:28.596Z,2.70
2022-11-08T05:08:59.041Z,3.63
2022-11-08T05:11:29.221Z,3.43
2022-11-08T05:13:59.281Z,3.60
2022-11-08T05:16:29.586Z,2.17
2022-11-08T05:18:58.308Z,2.23
2022-11-08T05:21:43.192Z,3.67
2022-11-08T05:24:13.152Z,2.00
2022-11-08T05:26:43.505Z,1.90
2022-11-08T05:29:14.220Z,3.67
2022-11-08T05:32:53.117Z,2.60
2022-11-08T05:35:22.973Z,2.97
2022-11-08T05:37:51.452Z,1.83
2022-11-08T05:40:19.682Z,3.90
2022-11-08T05:42:48.337Z,2.67
2022-11-08T05:45:18.553Z,3.87
2022-11-08T05:47:50.070Z,1.90
2022-11-08T05:50:33.012Z,1.57
2022-11-08T05:53:03.017Z,4.77
2022-11-08T05:55:33.281Z,7.73
2022-11-08T05:58:01.674Z,3.97
2022-11-08T06:00:31.970Z,3.20
2022-11-08T06:03:01.494Z,2.30
2022-11-08T06:05:29.866Z,2.10
2022-11-08T06:07:58.325Z,2.37
2022-11-08T06:10:28.155Z,6.50
2022-11-08T06:13:06.348Z,9.10
2022-11-08T06:15:36.611Z,3.63
2022-11-08T06:18:05.569Z,2.70
2022-11-08T06:20:34.165Z,1.40
2022-11-08T06:23:03.566Z,3.30
2022-11-08T06:25:37.817Z,5.83
2022-11-08T06:28:07.861Z,2.70
2022-11-08T06:30:39.902Z,2.93
2022-11-08T06:33:11.524Z,6.53
2022-11-08T06:35:41.536Z,3.03
2022-11-08T06:38:10.193Z,5.70
2022-11-08T06:40:40.972Z,4.40
2022-11-08T06:43:14.946Z,3.90
2022-11-08T06:45:50.307Z,4.27
2022-11-08T06:57:32.262Z,4.93
2022-11-08T07:02:59.352Z,4.60
2022-11-08T07:08:46.807Z,5.30
2022-11-08T07:14:11.780Z,4.33
2022-11-08T07:19:28.076Z,8.40
2022-11-08T07:22:14.447Z,5.33
2022-11-08T07:24:53.635Z,7.43
2022-11-08T07:27:26.974Z,7.30
2022-11-08T07:30:09.399Z,11.93
2022-11-08T07:32:46.686Z,8.03
2022-11-08T07:35:19.997Z,5.63
2022-11-08T07:37:49.744Z,4.13
2022-11-08T07:40:25.913Z,2.97
2022-11-08T07:43:11.151Z,6.90
2022-11-08T07:45:40.659Z,8.80
2022-11-08T07:48:12.281Z,4.93
2022-11-08T07:50:43.187Z,3.83
2022-11-08T07:56:20.180Z,7.00
2022-11-08T07:58:48.593Z,5.53
2022-11-08T08:01:17.758Z,7.27
2022-11-08T08:03:46.695Z,5.07
2022-11-08T08:06:16.163Z,4.60
2022-11-08T08:08:44.560Z,20.07
2022-11-08T08:11:13.019Z,9.20
2022-11-08T08:13:41.580Z,15.50
2022-11-08T08:16:10.724Z,6.50
2022-11-08T08:18:39.228Z,12.07
2022-11-08T08:21:07.857Z,5.43
2022-11-08T08:23:38.077Z,7.03
2022-11-08T08:26:07.203Z,5.13
2022-11-08T08:28:38.324Z,7.07
2022-11-08T08:31:08.809Z,6.23
2022-11-08T08:33:38.413Z,6.20
2022-11-08T08:36:09.750Z,3.33
2022-11-08T08:38:50.371Z,2.97
2022-11-08T08:41:33.936Z,1.93
2022-11-08T08:44:03.294Z,2.73
2022-11-08T09:04:03.637Z,4.93
2022-11-08T09:06:48.502Z,3.57
2022-11-08T09:12:29.282Z,1.30
2022-11-08T09:56:01.362Z,3.00
2022-11-08T09:58:50.908Z,3.77
2022-11-08T10:01:26.718Z,4.60
2022-11-08T10:04:01.385Z,3.03
2022-11-08T10:07:02.073Z,7.73
2022-11-08T10:09:53.849Z,7.20
2022-11-08T10:12:47.017Z,12.10
2022-11-08T10:15:23.948Z,7.77
2022-11-08T10:18:19.929Z,6.37
2022-11-08T10:21:08.193Z,4.10
2022-11-08T10:27:14.143Z,1.60
2022-11-08T10:32:37.688Z,4.50
2022-11-08T10:38:07.249Z,3.93
2022-11-08T10:43:47.237Z,3.83
2022-11-08T10:46:43.427Z,7.33
2022-11-08T10:49:33.099Z,9.83
2022-11-08T10:52:17.242Z,4.77
2022-11-08T10:54:49.570Z,17.57
2022-11-08T10:57:24.968Z,5.27
2022-11-08T10:59:55.013Z,4.67
2022-11-08T11:02:36.254Z,3.07
2022-11-08T11:05:29.237Z,6.77
2022-11-08T11:08:19.554Z,3.07
2022-11-08T11:10:49.783Z,2.37
2022-11-08T11:16:03.430Z,5.60
2022-11-08T11:18:52.694Z,2.97
2022-11-08T11:22:05.596Z,3.33
2022-11-08T11:25:17.539Z,3.27
2022-11-08T11:27:46.914Z,2.33
2022-11-08T11:30:24.919Z,2.93
2022-11-08T11:33:05.245Z,2.20
2022-11-08T11:36:20.417Z,3.20
2022-11-08T11:42:46.160Z,5.10
2022-11-08T11:45:40.374Z,4.83
2022-11-08T11:48:16.694Z,3.97
2022-11-08T11:50:47.794Z,3.60
2022-11-08T11:53:20.854Z,5.37
2022-11-08T11:56:51.195Z,2.30
2022-11-08T11:59:55.440Z,3.17
2022-11-08T12:02:51.539Z,4.97
2022-11-08T12:05:49.853Z,3.47
2022-11-08T12:11:45.482Z,10.40
2022-11-08T12:14:45.323Z,2.43
2022-11-08T12:21:09.333Z,5.77
2022-11-08T12:24:17.459Z,4.80
2022-11-08T12:26:53.830Z,5.67
2022-11-08T12:29:45.571Z,2.67
2022-11-08T12:32:32.530Z,2.77
2022-11-08T13:20:57.534Z,4.07
2022-11-08T13:23:33.812Z,4.30
2022-11-08T13:26:20.545Z,4.87
2022-11-08T13:29:09.589Z,2.90
2022-11-08T13:31:58.208Z,2.70
2022-11-08T13:34:53.095Z,5.30
2022-11-08T13:38:11.879Z,6.03
2022-11-08T13:41:31.889Z,5.40
2022-11-08T13:53:34.533Z,5.40
2022-11-08T14:00:10.219Z,7.47
2022-11-08T14:02:39.787Z,3.93
2022-11-08T14:05:27.412Z,5.00
2022-11-08T14:08:19.600Z,7.67
2022-11-08T14:11:31.117Z,5.60
2022-11-08T14:14:35.111Z,4.13
2022-11-08T14:17:35.840Z,4.63
2022-11-08T14:20:30.816Z,5.87
2022-11-08T14:23:02.191Z,4.90
2022-11-08T14:25:31.815Z,4.70
2022-11-08T14:28:03.916Z,4.97
2022-11-08T14:30:36.409Z,6.27
2022-11-08T14:33:16.635Z,4.00
2022-11-08T14:35:53.094Z,4.30
2022-11-08T14:38:21.727Z,5.50
2022-11-08T14:40:52.605Z,4.33
2022-11-08T14:43:25.181Z,2.30
2022-11-08T14:48:38.854Z,3.20
2022-11-08T14:51:09.319Z,4.63
2022-11-08T14:53:48.370Z,6.07
2022-11-08T14:56:19.668Z,11.57
2022-11-08T14:58:51.334Z,4.67
2022-11-08T15:01:23.087Z,9.30
2022-11-08T15:03:55.773Z,14.43
2022-11-08T15:06:31.705Z,20.47
2022-11-08T15:09:00.371Z,14.60
2022-11-08T15:11:32.314Z,11.60
2022-11-08T15:14:04.753Z,8.30
2022-11-08T15:16:44.935Z,14.97
2022-11-08T15:19:30.670Z,14.07
2022-11-08T15:21:59.386Z,14.77
2022-11-08T15:28:00.492Z,5.37
2022-11-08T15:30:40.144Z,9.37
2022-11-08T15:33:27.081Z,8.87
2022-11-08T15:35:58.637Z,9.90
2022-11-08T15:50:47.270Z,14.87
2022-11-08T15:59:21.472Z,13.60
2022-11-08T16:01:57.294Z,7.90
2022-11-08T16:04:27.370Z,14.20
2022-11-08T16:06:59.778Z,28.60
2022-11-08T16:21:56.848Z,14.43
2022-11-08T16:24:27.134Z,11.73
2022-11-08T16:26:55.947Z,9.27
2022-11-08T16:29:25.930Z,15.03
2022-11-08T16:31:54.470Z,15.23
2022-11-08T16:34:23.510Z,7.13
2022-11-08T16:36:52.121Z,18.80
2022-11-08T16:39:26.568Z,15.33
2022-11-08T16:41:55.408Z,12.27
2022-11-08T16:47:41.655Z,22.20
2022-11-08T16:50:19.146Z,9.20
2022-11-08T16:52:51.453Z,27.50
2022-11-08T16:55:21.207Z,28.90
2022-11-08T16:57:52.303Z,22.93
2022-11-08T17:00:32.105Z,16.27
2022-11-08T17:03:04.202Z,22.43
2022-11-08T17:08:08.717Z,47.83
2022-11-08T17:10:37.609Z,42.47
2022-11-08T17:13:06.810Z,24.00
2022-11-08T17:15:35.411Z,29.67
2022-11-08T17:18:07.171Z,28.70
2022-11-08T17:20:37.784Z,25.00
2022-11-08T17:23:06.792Z,20.63
2022-11-08T17:25:39.909Z,20.87
2022-11-08T17:28:09.706Z,12.70
2022-11-08T17:30:44.556Z,18.47
2022-11-08T17:33:19.606Z,15.63
2022-11-08T17:35:48.372Z,17.43
2022-11-08T17:38:17.910Z,29.53
2022-11-08T17:41:04.090Z,16.90
2022-11-08T17:43:33.543Z,18.17
2022-11-08T17:46:02.122Z,25.13
2022-11-08T17:48:33.749Z,16.90
2022-11-08T17:51:03.544Z,12.40
2022-11-08T17:53:33.972Z,20.87
2022-11-08T17:56:05.670Z,25.90
2022-11-08T17:58:34.451Z,14.93
2022-11-08T18:01:05.747Z,30.33
2022-11-08T18:03:35.870Z,23.60
2022-11-08T18:06:05.502Z,21.80
2022-11-08T18:08:35.321Z,18.90
2022-11-08T18:11:03.324Z,15.00
2022-11-08T18:13:35.402Z,16.83
2022-11-08T18:16:11.504Z,15.93
2022-11-08T18:18:44.767Z,14.80
2022-11-08T18:21:14.994Z,9.60
2022-11-08T18:23:45.982Z,15.40
2022-11-08T18:26:15.182Z,10.07
2022-11-08T18:28:47.673Z,8.93
2022-11-08T18:31:21.224Z,14.33
2022-11-08T18:33:51.588Z,12.30
2022-11-08T18:36:24.034Z,14.83
2022-11-08T18:38:53.225Z,10.07
2022-11-08T18:41:25.317Z,21.43
2022-11-08T18:43:57.878Z,19.20
2022-11-08T18:46:28.515Z,13.57
2022-11-08T18:49:01.062Z,20.37
2022-11-08T18:51:29.227Z,14.83
2022-11-08T18:53:58.099Z,23.33
2022-11-08T18:56:26.216Z,13.57
2022-11-08T18:58:54.441Z,18.70
2022-11-08T19:01:23.939Z,22.80
2022-11-08T19:03:52.102Z,16.43
2022-11-08T19:06:22.735Z,18.40
2022-11-08T19:08:51.195Z,11.10
2022-11-08T19:17:24.250Z,9.57
2022-11-08T19:36:04.119Z,7.57
2022-11-08T19:38:34.467Z,13.47
2022-11-08T19:41:04.637Z,6.07
2022-11-08T19:43:34.272Z,6.40
2022-11-08T19:46:04.185Z,6.97
2022-11-08T19:48:40.541Z,7.93
2022-11-08T19:51:19.711Z,8.50
2022-11-08T19:53:50.761Z,5.00
2022-11-08T19:56:32.879Z,6.50
2022-11-08T19:59:10.197Z,5.50
2022-11-08T20:01:40.463Z,5.40
2022-11-08T20:04:11.289Z,9.47
2022-11-08T20:06:41.800Z,7.33
2022-11-08T20:09:10.566Z,7.63
2022-11-08T20:11:41.257Z,6.07
2022-11-08T20:14:10.549Z,6.43
2022-11-08T20:16:41.920Z,7.57
2022-11-08T20:19:13.380Z,7.47
2022-11-08T20:21:47.106Z,6.70
2022-11-08T20:24:16.549Z,5.40
2022-11-08T20:26:45.332Z,5.07
2022-11-08T20:29:14.852Z,8.13
2022-11-08T20:31:43.409Z,4.17
2022-11-08T20:34:12.970Z,4.63
2022-11-08T20:36:44.530Z,5.13
2022-11-08T20:39:14.195Z,7.20
2022-11-08T20:41:43.189Z,5.83
2022-11-08T20:44:12.185Z,5.43
2022-11-08T20:46:41.582Z,6.80
2022-11-08T20:49:10.462Z,8.80
2022-11-08T20:51:39.174Z,7.20
2022-11-08T20:54:09.660Z,6.50
2022-11-08T20:56:38.286Z,8.10
2022-11-08T20:59:06.696Z,9.77
2022-11-08T21:01:36.245Z,5.53
2022-11-08T21:04:04.936Z,5.80
2022-11-08T21:06:36.173Z,9.37
2022-11-08T21:11:49.561Z,5.77
2022-11-08T21:14:17.895Z,19.83
2022-11-08T21:17:15.138Z,12.33
2022-11-08T21:19:36.562Z,6.83
2022-11-08T21:22:16.934Z,7.33
2022-11-08T21:24:47.041Z,6.33
2022-11-08T21:27:17.030Z,5.83
2022-11-08T21:29:58.089Z,5.67
2022-11-08T21:32:26.649Z,2.83
2022-11-08T21:34:55.267Z,4.50
2022-11-08T21:37:24.285Z,3.17
2022-11-08T21:39:56.787Z,5.77
2022-11-08T21:42:39.710Z,4.53
2022-11-08T21:45:13.902Z,3.83
2022-11-08T21:47:45.964Z,3.43
2022-11-08T21:50:14.959Z,4.07
2022-11-08T21:52:44.005Z,5.87
2022-11-08T21:55:14.630Z,3.33
2022-11-08T21:57:44.493Z,3.73
2022-11-08T22:00:14.499Z,4.20
2022-11-08T22:02:42.980Z,3.80
2022-11-08T22:05:11.722Z,5.03
2022-11-08T22:07:40.187Z,4.60
2022-11-08T22:10:11.673Z,9.37
2022-11-08T22:12:40.107Z,3.23
2022-11-08T22:15:10.985Z,4.63
2022-11-08T22:17:45.934Z,3.70
2022-11-08T22:20:18.834Z,3.53
2022-11-08T22:22:47.277Z,3.83
2022-11-08T22:25:16.023Z,3.70
2022-11-08T22:27:45.345Z,3.27
2022-11-08T22:30:16.940Z,3.90
2022-11-08T22:32:45.715Z,3.80
2022-11-08T22:35:13.790Z,3.60
2022-11-08T22:37:44.802Z,3.73
2022-11-08T22:40:13.931Z,3.67
2022-11-08T22:42:42.554Z,4.00
2022-11-08T22:45:11.525Z,3.53
2022-11-08T22:47:45.272Z,3.73
2022-11-08T22:50:14.145Z,3.60
2022-11-08T22:52:42.566Z,2.93
2022-11-08T22:55:11.556Z,3.63
2022-11-08T22:57:40.605Z,3.33
2022-11-08T23:00:10.539Z,4.10
2022-11-08T23:02:40.260Z,3.00
2022-11-08T23:05:09.492Z,3.93
2022-11-08T23:07:38.108Z,3.23
2022-11-08T23:10:07.266Z,3.67
2022-11-08T23:12:53.361Z,3.80
2022-11-08T23:15:39.220Z,3.90
2022-11-08T23:18:09.275Z,4.50
2022-11-08T23:21:09.370Z,2.93
2022-11-08T23:23:57.701Z,9.20
2022-11-08T23:26:39.975Z,3.63
2022-11-08T23:29:28.466Z,5.43
2022-11-08T23:31:56.965Z,6.70
2022-11-08T23:34:27.162Z,4.83
2022-11-08T23:36:57.711Z,4.13
2022-11-08T23:39:26.844Z,3.20
2022-11-08T23:42:24.503Z,3.33
2022-11-08T23:44:55.317Z,3.50
2022-11-08T23:47:24.051Z,2.50
2022-11-08T23:49:54.425Z,5.13
2022-11-08T23:52:23.461Z,4.47
2022-11-08T23:54:52.169Z,3.77
2022-11-08T23:57:22.461Z,2.50
